createdAt,value
2023-03-15T00:04:21.692Z,81.2
2023-03-15T00:23:42.201Z,82.3
2023-03-15T00:43:03.239Z,85.1
2023-03-15T01:02:22.918Z,89.3
2023-03-15T01:21:38.474Z,94.2
2023-03-15T01:40:57.175Z,100
2023-03-15T02:00:17.315Z,100
2023-03-15T02:19:36.484Z,100
2023-03-15T02:38:54.708Z,100
2023-03-15T02:58:14.563Z,100
2023-03-15T03:17:34.964Z,100
2023-03-15T03:36:55.399Z,100
2023-03-15T03:56:14.352Z,100
2023-03-15T04:15:34.838Z,100
2023-03-15T04:34:55.528Z,100
2023-03-15T04:54:16.194Z,100
2023-03-15T05:13:37.004Z,100
2023-03-15T05:32:57.292Z,100
2023-03-15T05:52:18.062Z,100
2023-03-15T06:11:39.173Z,100
2023-03-15T06:31:00.482Z,100
2023-03-15T06:50:21.026Z,100
2023-03-15T07:09:42.756Z,100
2023-03-15T07:29:04.343Z,100
2023-03-15T07:48:24.157Z,100
2023-03-15T08:07:43.675Z,100
2023-03-15T08:27:05.388Z,100
2023-03-15T08:46:26.833Z,100
2023-03-15T09:05:48.123Z,100
2023-03-15T09:25:11.398Z,97.6
2023-03-15T09:44:35.199Z,92.5
2023-03-15T10:04:00.438Z,87.2
2023-03-15T10:23:14.844Z,89.2
2023-03-15T10:42:34.472Z,85.1
2023-03-15T11:01:57.290Z,84.3
2023-03-15T11:21:15.772Z,80.5
2023-03-15T11:40:38.227Z,69.8
2023-03-15T12:00:00.196Z,67
2023-03-15T12:19:22.561Z,62.9
2023-03-15T12:38:41.440Z,63.2
2023-03-15T12:58:06.258Z,58.8
2023-03-15T13:17:26.014Z,59.2
2023-03-15T13:36:46.500Z,59.6
2023-03-15T13:56:06.038Z,69.1
2023-03-15T13:56:14.061Z,68.2
2023-03-15T14:15:28.367Z,64.4
2023-03-15T14:34:46.665Z,62.9
2023-03-15T14:54:06.266Z,64.8
2023-03-15T15:13:23.358Z,64.3
2023-03-15T15:32:44.398Z,61.2
2023-03-15T15:52:04.186Z,56.4
2023-03-15T16:11:24.479Z,61.5
2023-03-15T16:30:47.263Z,60.6
2023-03-15T16:50:02.321Z,63.7
2023-03-15T17:09:21.860Z,65.1
2023-03-15T17:28:43.323Z,67.7
2023-03-15T17:47:59.460Z,71.4
2023-03-15T18:07:15.753Z,74.4
2023-03-15T18:26:37.618Z,79
2023-03-15T18:26:45.451Z,79.1
2023-03-15T18:46:03.725Z,82
2023-03-15T19:05:21.702Z,84.2
2023-03-15T19:24:38.360Z,87.8
2023-03-15T19:44:10.774Z,89.8
2023-03-15T20:03:21.645Z,89.5
2023-03-15T20:03:29.806Z,89.5
2023-03-15T20:22:56.764Z,91.4
2023-03-15T20:42:47.550Z,93.7
2023-03-15T20:42:59.378Z,93.8
2023-03-15T21:02:20.051Z,93.9
2023-03-15T21:21:31.275Z,97.9
2023-03-15T21:40:51.072Z,98.6
2023-03-15T22:00:18.045Z,96.3
2023-03-15T22:19:32.718Z,93.3
2023-03-15T22:38:51.470Z,92.5
2023-03-15T22:58:11.609Z,92.9
2023-03-15T23:17:31.829Z,91.9
2023-03-15T23:36:50.978Z,89.8
2023-03-15T23:56:11.440Z,89.1
